Time;durP1;ratioP1;P1;durP2;ratioP2;P2;SDS_P1;SDS_P2;PMS_P1;PMS_P2;Temp;Humidity;BMP_temperature;BMP_pressure;BME280_temperature;BME280_humidity;BME280_pressure;Samples;Min_cycle;Max_cycle;Signal;HPM_P1;HPM_P2
2022/07/30 00:02:20;;;;;;;3.25;1.90;;;;;;;24.57;47.23;99643.31;4860569;29;20493;-79
2022/07/30 00:04:46;;;;;;;5.53;2.58;;;;;;;24.28;47.46;99621.16;4860031;29;20033;-80
2022/07/30 00:07:12;;;;;;;2.60;1.67;;;;;;;24.42;47.05;99623.72;4860755;29;20030;-81
2022/07/30 00:09:37;;;;;;;3.05;1.50;;;;;;;24.27;47.08;99608.69;4860497;29;20116;-81
2022/07/30 00:12:04;;;;;;;2.78;1.88;;;;;;;24.56;46.86;99630.78;4860960;29;20033;-80
2022/07/30 00:14:30;;;;;;;3.85;2.47;;;;;;;24.41;47.03;99618.44;4860418;29;20120;-80
2022/07/30 00:16:55;;;;;;;2.95;1.80;;;;;;;24.30;47.28;99630.88;4860842;29;20068;-80
2022/07/30 00:19:21;;;;;;;2.05;1.55;;;;;;;24.27;47.42;99622.16;4860190;29;20116;-81
2022/07/30 00:21:46;;;;;;;4.03;1.70;;;;;;;24.11;48.05;99617.88;4859862;29;20124;-80
2022/07/30 00:24:12;;;;;;;3.90;1.63;;;;;;;23.88;48.65;99613.28;4860233;29;20073;-80
2022/07/30 00:26:37;;;;;;;3.08;1.80;;;;;;;24.06;48.19;99614.66;4860733;29;20043;-81
2022/07/30 00:29:04;;;;;;;3.47;2.03;;;;;;;24.26;47.96;99626.66;4859954;29;20033;-80
2022/07/30 00:31:30;;;;;;;2.40;1.33;;;;;;;24.31;48.05;99632.59;4859840;29;20120;-80
2022/07/30 00:33:55;;;;;;;6.70;2.08;;;;;;;24.20;48.12;99610.09;4859427;29;20128;-80
2022/07/30 00:36:22;;;;;;;2.35;1.70;;;;;;;24.11;48.54;99595.44;4860359;29;20116;-80
2022/07/30 00:38:47;;;;;;;2.35;1.58;;;;;;;24.08;48.78;99603.75;4860016;29;20033;-81
2022/07/30 00:41:13;;;;;;;3.35;2.03;;;;;;;23.99;48.60;99593.66;4859888;29;20097;-80
2022/07/30 00:43:38;;;;;;;4.35;2.15;;;;;;;24.15;48.57;99617.66;4859542;29;20473;-79
2022/07/30 00:46:04;;;;;;;3.53;1.95;;;;;;;24.03;48.48;99616.72;4860009;29;20497;-80
2022/07/30 00:48:30;;;;;;;3.17;1.70;;;;;;;24.05;48.66;99621.03;4859829;29;20065;-80
2022/07/30 00:50:55;;;;;;;2.72;1.92;;;;;;;23.89;48.49;99580.84;4859749;29;20086;-79
2022/07/30 00:53:21;;;;;;;3.70;2.38;;;;;;;24.06;49.23;99619.19;4860114;29;20098;-81
2022/07/30 00:55:46;;;;;;;3.25;1.92;;;;;;;24.08;48.84;99618.13;4860072;29;20485;-80
2022/07/30 00:58:12;;;;;;;3.65;1.80;;;;;;;23.93;48.91;99603.91;4858025;29;20495;-81
2022/07/30 01:00:37;;;;;;;2.25;1.75;;;;;;;23.98;49.79;99624.28;4859494;29;20041;-80
2022/07/30 01:03:03;;;;;;;3.03;1.77;;;;;;;23.90;49.61;99625.69;4859230;29;20049;-80
2022/07/30 01:05:29;;;;;;;2.15;1.95;;;;;;;23.85;49.90;99617.06;4859974;29;20037;-79
2022/07/30 01:07:55;;;;;;;2.35;1.45;;;;;;;23.73;49.58;99601.75;4859511;29;20031;-79
2022/07/30 01:10:20;;;;;;;3.55;1.88;;;;;;;23.62;49.55;99594.44;4859428;29;20053;-79
2022/07/30 01:12:46;;;;;;;3.95;2.40;;;;;;;23.72;49.78;99602.72;4859222;29;20053;-79
2022/07/30 01:15:11;;;;;;;3.55;2.38;;;;;;;23.62;50.71;99617.78;4859715;29;20398;-80
2022/07/30 01:17:37;;;;;;;3.97;2.47;;;;;;;23.38;51.70;99608.63;4859055;29;20034;-80
2022/07/30 01:20:12;;;;;;;7.15;3.47;;;;;;;23.18;51.47;99568.81;4859633;29;20041;-79
2022/07/30 01:23:11;;;;;;;2.70;1.90;;;;;;;23.36;51.01;99585.50;4856752;29;20082;-79
2022/07/30 01:25:53;;;;;;;5.10;2.60;;;;;;;23.43;51.09;99597.56;4859529;29;20036;-79
2022/07/30 01:28:26;;;;;;;2.50;1.88;;;;;;;23.38;51.68;99589.81;4859087;29;20030;-79
2022/07/30 01:30:53;;;;;;;3.05;2.45;;;;;;;;;;4859285;29;20497;-79
2022/07/30 01:33:22;;;;;;;2.53;1.55;;;;;;;23.47;50.78;99592.84;4859263;29;20029;-79
2022/07/30 01:35:49;;;;;;;3.80;1.63;;;;;;;23.45;51.38;99613.59;4858892;29;20041;-79
2022/07/30 01:38:20;;;;;;;3.30;2.13;;;;;;;23.46;51.37;99610.78;4858869;29;20091;-79
2022/07/30 01:40:46;;;;;;;3.35;1.95;;;;;;;23.32;50.81;99600.13;4858400;29;20038;-80
2022/07/30 01:43:13;;;;;;;2.50;1.48;;;;;;;23.06;50.71;99565.09;4859102;29;20437;-82
2022/07/30 01:45:40;;;;;;;2.95;1.77;;;;;;;23.21;51.11;99588.28;4858645;29;20474;-80
2022/07/30 01:48:08;;;;;;;3.88;2.20;;;;;;;23.34;50.24;99590.13;4859173;29;20038;-80
2022/07/30 01:50:36;;;;;;;3.75;2.03;;;;;;;23.07;51.40;99591.91;4858734;29;20489;-80
2022/07/30 01:53:02;;;;;;;2.80;1.98;;;;;;;23.12;51.67;99585.38;4858961;29;20030;-80
2022/07/30 01:55:38;;;;;;;2.25;1.75;;;;;;;23.23;51.66;99583.69;4859290;29;20493;-80
2022/07/30 01:58:05;;;;;;;3.15;1.63;;;;;;;23.28;51.22;99596.81;4858565;29;20045;-79
2022/07/30 02:00:33;;;;;;;3.55;1.70;;;;;;;22.99;51.95;99556.59;4858836;29;20105;-79
2022/07/30 02:02:59;;;;;;;3.97;2.00;;;;;;;23.24;52.22;99614.13;4858726;29;20045;-79
2022/07/30 02:05:27;;;;;;;4.10;2.05;;;;;;;23.06;52.48;99586.63;4858645;29;20033;-80
2022/07/30 02:08:02;;;;;;;4.60;1.67;;;;;;;23.15;51.62;99595.94;4858593;29;20041;-79
2022/07/30 02:10:59;;;;;;;3.50;2.08;;;;;;;23.13;51.65;99611.31;4858880;29;20205;-80
2022/07/30 02:13:27;;;;;;;2.92;2.22;;;;;;;22.98;52.21;99583.59;4818603;29;20061;-80
2022/07/30 02:16:11;;;;;;;3.10;2.00;;;;;;;23.03;52.58;99582.34;4852989;29;20046;-79
2022/07/30 02:19:05;;;;;;;3.60;1.98;;;;;;;23.18;52.46;99611.84;4858762;29;20041;-79
2022/07/30 02:21:36;;;;;;;7.70;2.30;;;;;;;23.11;52.26;99613.22;4858211;29;20452;-79
2022/07/30 02:24:04;;;;;;;2.95;1.95;;;;;;;22.95;52.31;99599.94;4858488;29;20041;-79
2022/07/30 02:26:32;;;;;;;2.13;1.60;;;;;;;22.90;52.25;99594.88;4858543;29;20029;-79
2022/07/30 02:29:01;;;;;;;4.85;2.47;;;;;;;22.74;52.67;99570.88;4858281;29;20082;-79
2022/07/30 02:31:30;;;;;;;2.63;1.63;;;;;;;23.01;52.74;99618.34;4857469;29;20420;-78
2022/07/30 02:33:59;;;;;;;4.07;2.53;;;;;;;23.00;52.89;99604.06;4858601;29;20113;-79
2022/07/30 02:36:27;;;;;;;3.72;2.17;;;;;;;22.95;52.64;99597.25;4858176;29;20090;-79
2022/07/30 02:38:53;;;;;;;2.45;1.90;;;;;;;23.04;52.82;99599.31;4872160;29;20519;-79
2022/07/30 02:41:23;;;;;;;3.83;2.45;;;;;;;22.89;52.59;99596.72;4858182;29;20037;-79
2022/07/30 02:43:51;;;;;;;3.88;2.75;;;;;;;22.90;51.95;99602.94;4858225;29;20532;-79
2022/07/30 02:46:18;;;;;;;3.13;1.85;;;;;;;22.70;52.35;99572.88;4858263;29;20061;-79
2022/07/30 02:48:46;;;;;;;3.42;2.45;;;;;;;22.88;52.30;99607.59;4858307;29;20470;-78
2022/07/30 02:51:15;;;;;;;5.57;2.10;;;;;;;22.74;52.37;99599.56;4856014;29;20128;-79
2022/07/30 02:53:44;;;;;;;2.72;1.80;;;;;;;22.71;52.69;99600.66;4858036;29;20038;-80
2022/07/30 02:56:11;;;;;;;3.75;2.28;;;;;;;22.55;51.78;99581.13;4858565;29;20040;-79
2022/07/30 02:58:38;;;;;;;4.50;2.55;;;;;;;22.70;51.16;99599.75;4861998;29;20425;-79
2022/07/30 03:01:05;;;;;;;3.55;2.03;;;;;;;22.58;51.10;99579.09;4861539;29;20518;-79
2022/07/30 03:03:31;;;;;;;3.30;1.95;;;;;;;22.69;51.30;99587.31;4861735;29;20098;-78
2022/07/30 03:05:58;;;;;;;4.43;2.78;;;;;;;22.76;51.22;99598.50;4861856;29;20036;-78
2022/07/30 03:08:26;;;;;;;4.07;2.60;;;;;;;22.77;51.88;99605.63;4861276;29;20048;-78
2022/07/30 03:10:54;;;;;;;3.22;1.98;;;;;;;22.77;51.28;99602.03;4862030;29;20034;-78
2022/07/30 03:13:20;;;;;;;4.50;2.95;;;;;;;22.62;51.21;99594.06;4861503;29;20497;-80
2022/07/30 03:15:49;;;;;;;4.68;2.50;;;;;;;22.66;51.22;99579.44;4861677;29;20500;-79
2022/07/30 03:18:17;;;;;;;5.20;3.03;;;;;;;22.58;51.79;99591.66;4861950;29;20041;-79
2022/07/30 03:20:49;;;;;;;3.78;2.15;;;;;;;22.52;52.08;99577.69;4860889;29;20041;-79
2022/07/30 03:23:19;;;;;;;3.40;1.88;;;;;;;22.69;52.38;99594.50;4861719;29;20040;-79
2022/07/30 03:25:49;;;;;;;3.67;2.20;;;;;;;22.57;52.48;99561.25;4861387;29;20417;-79
2022/07/30 03:28:17;;;;;;;7.68;3.75;;;;;;;22.92;52.75;99602.84;4861637;29;20045;-79
2022/07/30 03:30:43;;;;;;;3.17;2.30;;;;;;;22.92;52.62;99594.78;4861198;29;20025;-79
2022/07/30 03:33:09;;;;;;;3.88;2.05;;;;;;;22.93;52.77;99599.19;4861206;29;20162;-79
2022/07/30 03:35:36;;;;;;;2.88;2.10;;;;;;;22.87;52.87;99587.88;4861252;29;20057;-79
2022/07/30 03:38:02;;;;;;;4.45;1.92;;;;;;;22.88;52.75;99584.22;4861704;29;20098;-79
2022/07/30 03:40:28;;;;;;;4.78;2.25;;;;;;;22.79;52.88;99573.25;4860423;29;20078;-78
2022/07/30 03:42:54;;;;;;;2.92;1.85;;;;;;;22.94;52.68;99591.03;4861164;29;20124;-78
2022/07/30 03:45:20;;;;;;;4.75;2.95;;;;;;;22.99;52.28;99588.88;4860912;29;20247;-78
2022/07/30 03:47:47;;;;;;;3.88;1.90;;;;;;;23.01;51.76;99597.69;4860972;29;20037;-78
2022/07/30 03:50:14;;;;;;;3.22;2.10;;;;;;;22.90;51.86;99568.00;4861140;29;20036;-78
2022/07/30 03:52:40;;;;;;;4.72;3.00;;;;;;;23.18;52.54;99606.47;4860932;29;20037;-78
2022/07/30 03:55:08;;;;;;;4.32;2.60;;;;;;;23.19;52.31;99592.91;4860922;29;20483;-79
2022/07/30 03:57:34;;;;;;;4.28;1.98;;;;;;;23.31;51.95;99601.09;4860666;29;20029;-79
2022/07/30 03:59:59;;;;;;;4.57;2.55;;;;;;;23.37;51.43;99604.25;4860473;29;20214;-79
2022/07/30 04:02:25;;;;;;;3.97;2.35;;;;;;;23.37;51.46;99608.75;4860457;29;20053;-79
2022/07/30 04:04:50;;;;;;;3.05;2.10;;;;;;;23.33;51.22;99591.97;4860654;29;20084;-80
2022/07/30 04:07:16;;;;;;;3.55;2.10;;;;;;;23.58;51.10;99615.31;4860938;29;20535;-79
2022/07/30 04:09:42;;;;;;;3.22;1.88;;;;;;;23.53;51.39;99603.16;4859424;29;20033;-79
2022/07/30 04:12:07;;;;;;;6.38;3.42;;;;;;;23.58;50.23;99612.63;4860673;29;20061;-78
2022/07/30 04:14:43;;;;;;;4.35;2.78;;;;;;;23.25;50.47;99597.03;4859989;29;20063;-79
2022/07/30 04:17:21;;;;;;;4.53;2.35;;;;;;;22.86;52.21;99577.22;4860342;29;20413;-79
2022/07/30 04:19:59;;;;;;;5.00;2.85;;;;;;;22.99;52.40;99596.94;4859835;29;20060;-79
2022/07/30 04:22:29;;;;;;;2.90;2.08;;;;;;;23.52;51.17;99617.59;4860036;29;20036;-81
2022/07/30 04:24:56;;;;;;;3.35;2.17;;;;;;;23.47;49.00;99592.84;4860552;29;20034;-80
2022/07/30 04:27:24;;;;;;;3.10;2.22;;;;;;;23.35;49.55;99590.00;4860056;29;20140;-79
2022/07/30 04:29:51;;;;;;;3.05;2.00;;;;;;;23.80;49.45;99627.25;4858776;29;20485;-79
2022/07/30 04:32:17;;;;;;;3.40;2.17;;;;;;;23.88;49.07;99599.81;4860286;29;20033;-79
2022/07/30 04:34:51;;;;;;;6.65;2.83;;;;;;;24.13;49.55;99615.09;4860058;29;20081;-79
2022/07/30 04:37:19;;;;;;;7.07;3.42;;;;;;;24.08;50.63;99612.72;4859895;29;20105;-78
2022/07/30 04:39:44;;;;;;;4.82;3.83;;;;;;;24.03;50.52;99614.88;4860026;29;20535;-80
2022/07/30 04:42:10;;;;;;;8.48;4.10;;;;;;;23.74;50.78;99571.16;4859881;29;20065;-79
2022/07/30 04:44:37;;;;;;;7.57;4.35;;;;;;;23.86;51.45;99631.41;4860162;29;20052;-80
2022/07/30 04:47:03;;;;;;;4.80;3.42;;;;;;;24.14;51.35;99616.78;4859747;29;20041;-79
2022/07/30 04:49:30;;;;;;;6.75;4.45;;;;;;;24.16;51.99;99632.84;4860166;29;20413;-79
2022/07/30 04:51:57;;;;;;;6.07;4.72;;;;;;;24.30;51.29;99606.63;4859208;29;20044;-80
2022/07/30 04:54:24;;;;;;;4.82;3.10;;;;;;;24.57;52.26;99627.13;4860279;29;20042;-80
2022/07/30 04:56:50;;;;;;;20.02;3.55;;;;;;;24.33;52.95;99634.31;4859747;29;20037;-81
2022/07/30 04:59:17;;;;;;;6.65;3.28;;;;;;;24.27;52.60;99606.00;4859380;29;20041;-81
2022/07/30 05:01:47;;;;;;;6.45;2.88;;;;;;;24.88;51.36;99610.50;4859676;29;20033;-80
2022/07/30 05:04:15;;;;;;;8.88;2.72;;;;;;;24.93;50.10;99627.19;4859964;29;20041;-81
2022/07/30 05:06:42;;;;;;;4.00;2.78;;;;;;;24.72;48.84;99608.97;4858334;29;20033;-80
2022/07/30 05:09:08;;;;;;;3.47;2.20;;;;;;;25.13;48.67;99634.63;4859705;29;20036;-80
2022/07/30 05:11:34;;;;;;;4.68;2.95;;;;;;;25.10;46.72;99598.91;4858977;29;20402;-82
2022/07/30 05:13:59;;;;;;;3.42;2.17;;;;;;;25.90;46.10;99642.16;4859946;29;20043;-82
2022/07/30 05:16:26;;;;;;;3.95;2.90;;;;;;;26.09;45.61;99609.13;4859772;29;20085;-82
2022/07/30 05:18:51;;;;;;;4.57;3.20;;;;;;;26.12;44.23;99610.75;4858542;29;20029;-81
2022/07/30 05:21:17;;;;;;;3.75;2.58;;;;;;;26.06;45.23;99632.88;4858656;29;20040;-81
2022/07/30 05:23:42;;;;;;;6.60;3.63;;;;;;;26.26;44.69;99626.69;4859243;29;20508;-81
2022/07/30 05:26:08;;;;;;;4.47;2.58;;;;;;;26.46;44.08;99640.38;4857660;29;20034;-81
2022/07/30 05:28:33;;;;;;;3.03;2.25;;;;;;;26.76;43.67;99637.03;4859100;29;20041;-81
2022/07/30 05:30:59;;;;;;;4.88;3.38;;;;;;;27.04;43.71;99617.63;4859001;29;20517;-83
2022/07/30 05:33:24;;;;;;;7.57;2.67;;;;;;;27.31;42.83;99611.66;4858627;29;20038;-81
2022/07/30 05:35:50;;;;;;;5.47;2.88;;;;;;;27.68;42.55;99635.59;4858296;29;20041;-81
2022/07/30 05:38:16;;;;;;;4.15;2.40;;;;;;;27.99;42.12;99633.78;4858489;29;20041;-81
2022/07/30 05:40:43;;;;;;;6.57;3.75;;;;;;;28.17;41.39;99620.41;4858362;29;20560;-82
2022/07/30 05:43:08;;;;;;;11.70;2.90;;;;;;;28.42;41.07;99623.63;4847318;29;20532;-80
2022/07/30 05:45:34;;;;;;;4.10;2.33;;;;;;;28.35;40.98;99615.19;4857442;29;20055;-84
2022/07/30 05:48:00;;;;;;;7.75;3.08;;;;;;;28.66;40.63;99614.28;4858313;29;21409;-86
2022/07/30 05:50:25;;;;;;;5.65;3.53;;;;;;;28.69;40.31;99609.41;4859712;29;20108;-81
2022/07/30 05:52:51;;;;;;;5.72;2.63;;;;;;;28.87;40.48;99628.59;4858301;29;20544;-80
2022/07/30 05:55:17;;;;;;;4.88;2.58;;;;;;;29.26;40.23;99598.72;4858202;29;20041;-81
2022/07/30 05:57:42;;;;;;;4.03;3.47;;;;;;;29.69;38.75;99626.34;4858712;29;20036;-81
2022/07/30 06:00:10;;;;;;;6.20;4.15;;;;;;;29.82;38.65;99620.63;4858651;29;20042;-81
2022/07/30 06:02:36;;;;;;;4.82;3.38;;;;;;;30.13;38.07;99598.56;4858512;29;20386;-82
2022/07/30 06:05:02;;;;;;;9.43;3.65;;;;;;;30.04;38.72;99632.13;4858494;29;20506;-83
2022/07/30 06:07:27;;;;;;;3.28;2.45;;;;;;;29.86;39.08;99607.56;4850342;29;20072;-82
2022/07/30 06:09:53;;;;;;;4.22;3.30;;;;;;;30.21;37.35;99614.97;4871628;29;20077;-83
2022/07/30 06:12:18;;;;;;;6.45;5.20;;;;;;;30.54;36.82;99629.00;4857741;29;20037;-82
2022/07/30 06:14:44;;;;;;;7.25;4.43;;;;;;;30.48;37.24;99624.19;4857680;29;20033;-82
2022/07/30 06:17:09;;;;;;;7.10;5.05;;;;;;;30.69;37.43;99594.81;4846914;29;20034;-81
2022/07/30 06:19:35;;;;;;;4.13;2.47;;;;;;;31.04;36.93;99603.13;4839973;29;20130;-85
2022/07/30 06:22:00;;;;;;;5.47;3.03;;;;;;;31.13;36.55;99595.91;4857713;29;20037;-85
2022/07/30 06:24:26;;;;;;;4.40;2.72;;;;;;;31.12;37.12;99621.41;4858645;29;20095;-84
2022/07/30 06:26:52;;;;;;;4.80;3.65;;;;;;;30.99;37.60;99583.69;4858745;29;20094;-82
2022/07/30 06:29:17;;;;;;;4.07;2.90;;;;;;;31.00;37.23;99618.94;4858814;29;20156;-82
2022/07/30 06:31:43;;;;;;;5.50;3.03;;;;;;;30.54;35.63;99615.41;4859268;29;20034;-83
2022/07/30 06:34:08;;;;;;;4.70;2.75;;;;;;;30.78;36.35;99630.28;4862271;29;20583;-82
2022/07/30 06:36:35;;;;;;;3.70;2.47;;;;;;;30.48;37.67;99596.97;4861735;29;20095;-82
2022/07/30 06:39:01;;;;;;;6.22;3.40;;;;;;;30.77;36.72;99617.66;4862654;29;20495;-82
2022/07/30 06:41:26;;;;;;;4.40;2.40;;;;;;;30.75;35.86;99595.19;4861841;29;20037;-83
2022/07/30 06:43:52;;;;;;;4.35;2.65;;;;;;;30.84;35.96;99619.59;4875935;29;20128;-83
2022/07/30 06:46:18;;;;;;;4.22;2.40;;;;;;;31.10;34.13;99607.97;4857629;29;20094;-82
2022/07/30 06:48:43;;;;;;;4.13;2.45;;;;;;;30.57;35.57;99612.38;4862083;29;20033;-80
2022/07/30 06:51:08;;;;;;;3.95;2.67;;;;;;;30.80;35.54;99607.34;4861626;29;20029;-82
2022/07/30 06:53:34;;;;;;;5.72;2.13;;;;;;;31.17;34.12;99617.22;4861250;29;20097;-84
2022/07/30 06:55:59;;;;;;;2.78;1.92;;;;;;;31.37;33.78;99619.72;4861480;29;20133;-81
2022/07/30 06:58:25;;;;;;;6.72;2.67;;;;;;;31.59;32.89;99596.59;4854232;29;20037;-82
2022/07/30 07:00:51;;;;;;;5.13;2.65;;;;;;;32.43;32.51;99624.94;4860035;29;20080;-81
2022/07/30 07:03:16;;;;;;;3.67;2.72;;;;;;;32.57;32.31;99589.81;4861646;29;20033;-81
2022/07/30 07:05:41;;;;;;;3.45;2.60;;;;;;;32.87;32.17;99602.00;4861437;29;20112;-82
2022/07/30 07:08:09;;;;;;;4.70;2.83;;;;;;;32.80;32.20;99607.28;4861844;29;20066;-81
2022/07/30 07:10:34;;;;;;;5.72;3.90;;;;;;;32.92;32.27;99604.22;4861442;29;20037;-81
2022/07/30 07:13:00;;;;;;;4.80;3.20;;;;;;;32.78;32.53;99603.00;4861015;29;20033;-82
2022/07/30 07:15:26;;;;;;;4.43;3.40;;;;;;;32.73;31.95;99576.22;4861371;29;20070;-81
2022/07/30 07:17:51;;;;;;;5.60;3.97;;;;;;;33.13;31.11;99570.94;4861104;29;20057;-82
2022/07/30 07:20:17;;;;;;;4.70;3.10;;;;;;;33.00;31.45;99579.66;4860567;29;20453;-82
2022/07/30 07:22:43;;;;;;;5.97;3.42;;;;;;;33.14;32.35;99594.50;4860640;29;20089;-83
2022/07/30 07:25:09;;;;;;;5.30;3.25;;;;;;;33.26;31.47;99587.69;4860404;29;20501;-82
2022/07/30 07:27:36;;;;;;;5.22;2.83;;;;;;;33.23;32.97;99600.81;4875357;29;20037;-82
2022/07/30 07:30:02;;;;;;;5.00;3.13;;;;;;;34.00;31.05;99575.72;4860784;29;20103;-81
2022/07/30 07:32:28;;;;;;;4.20;2.85;;;;;;;34.28;31.16;99573.41;4874568;29;20436;-81
2022/07/30 07:34:53;;;;;;;7.30;3.42;;;;;;;34.71;29.79;99579.28;4860785;29;20054;-82
2022/07/30 07:37:19;;;;;;;4.60;3.22;;;;;;;34.88;29.06;99555.38;4861277;29;20053;-81
2022/07/30 07:39:44;;;;;;;6.18;3.95;;;;;;;35.05;28.76;99582.63;4861494;29;20033;-82
2022/07/30 07:42:10;;;;;;;3.90;3.00;;;;;;;35.02;30.53;99552.84;4860958;29;20133;-81
2022/07/30 07:44:35;;;;;;;4.20;2.97;;;;;;;34.81;28.95;99524.25;4861160;29;20089;-82
2022/07/30 07:47:00;;;;;;;3.22;2.20;;;;;;;34.80;28.56;99552.69;4861368;29;20503;-81
2022/07/30 07:49:26;;;;;;;2.95;2.08;;;;;;;34.81;28.86;99539.88;4860952;29;20507;-82
2022/07/30 07:51:51;;;;;;;8.82;3.92;;;;;;;34.56;28.70;99540.03;4861075;29;20037;-82
2022/07/30 07:54:17;;;;;;;3.50;2.10;;;;;;;34.66;28.63;99559.78;4861368;29;20033;-81
2022/07/30 07:56:43;;;;;;;4.18;2.38;;;;;;;35.09;28.25;99554.66;4861280;29;20458;-82
2022/07/30 07:59:08;;;;;;;4.07;2.72;;;;;;;34.85;29.08;99532.97;4860937;29;20032;-82
2022/07/30 08:01:33;;;;;;;3.63;1.98;;;;;;;35.26;28.09;99530.72;4861596;29;20037;-82
2022/07/30 08:03:59;;;;;;;3.35;1.88;;;;;;;34.52;30.01;99538.66;4861326;29;20097;-82
2022/07/30 08:06:25;;;;;;;4.40;2.40;;;;;;;34.80;30.65;99528.03;4860834;29;20120;-82
2022/07/30 08:08:50;;;;;;;5.07;2.38;;;;;;;35.18;29.25;99532.66;4861199;29;20095;-81
2022/07/30 08:11:16;;;;;;;3.50;2.20;;;;;;;35.65;26.79;99534.22;4860980;29;20473;-81
2022/07/30 08:13:42;;;;;;;3.67;2.60;;;;;;;35.83;28.71;99544.84;4860794;29;20425;-82
2022/07/30 08:16:09;;;;;;;3.47;2.40;;;;;;;35.93;26.60;99528.94;4860987;29;20038;-82
2022/07/30 08:18:37;;;;;;;3.42;2.47;;;;;;;35.70;27.00;99541.88;4860766;29;20090;-82
2022/07/30 08:21:03;;;;;;;2.65;2.00;;;;;;;36.08;26.57;99564.56;4860692;29;20459;-81
2022/07/30 08:23:29;;;;;;;4.55;2.50;;;;;;;36.06;26.25;99503.53;4861139;29;20045;-81
2022/07/30 08:25:57;;;;;;;5.00;2.67;;;;;;;36.13;26.34;99544.78;4859108;29;20047;-81
2022/07/30 08:28:22;;;;;;;5.03;3.13;;;;;;;36.50;26.88;99527.28;4860684;29;20060;-82
2022/07/30 08:30:48;;;;;;;3.47;2.40;;;;;;;36.05;26.65;99528.44;4860115;29;20517;-82
2022/07/30 08:33:14;;;;;;;3.75;2.47;;;;;;;36.27;27.05;99499.13;4860226;29;20029;-81
2022/07/30 08:35:40;;;;;;;3.25;1.70;;;;;;;36.26;27.26;99501.06;4860593;29;20054;-81
2022/07/30 08:38:05;;;;;;;3.60;2.42;;;;;;;36.27;26.46;99518.34;4860243;29;20089;-80
2022/07/30 08:40:33;;;;;;;2.40;1.92;;;;;;;36.08;25.69;99523.41;4860341;29;20575;-80
2022/07/30 08:43:03;;;;;;;12.48;11.23;;;;;;;36.02;26.92;99510.44;4858487;29;20034;-80
2022/07/30 08:45:33;;;;;;;5.72;2.97;;;;;;;36.21;26.37;99522.72;4860164;29;20125;-79
2022/07/30 08:48:06;;;;;;;31.25;17.17;;;;;;;36.08;23.63;99493.22;4873868;29;20478;-79
2022/07/30 08:50:33;;;;;;;20.45;9.60;;;;;;;36.15;25.78;99523.50;4860276;29;20068;-80
2022/07/30 08:53:00;;;;;;;9.07;5.45;;;;;;;36.33;25.07;99515.72;4860496;29;20037;-79
2022/07/30 08:55:26;;;;;;;10.77;5.55;;;;;;;35.91;25.61;99517.28;4859440;29;20072;-79
2022/07/30 09:02:03;;;;;;;2.93;2.17;;;;;;;35.82;25.16;99499.22;5079810;27;2054049;-80
2022/07/30 09:04:29;;;;;;;3.30;2.28;;;;;;;36.56;27.02;99504.53;5129154;28;20032;-80
2022/07/30 09:06:56;;;;;;;4.70;3.80;;;;;;;36.61;25.22;99500.31;5129221;28;20031;-80
2022/07/30 09:09:22;;;;;;;17.35;10.90;;;;;;;36.64;24.07;99489.81;5129147;28;20028;-79
2022/07/30 09:11:47;;;;;;;99.78;79.50;;;;;;;36.85;23.62;99486.19;5129091;28;20503;-79
2022/07/30 09:14:13;;;;;;;236.32;179.20;;;;;;;36.62;24.04;99471.81;5129022;28;20062;-79
2022/07/30 09:16:40;;;;;;;1468.80;810.72;;;;;;;36.86;23.60;99487.91;5129095;28;20055;-80
2022/07/30 09:19:11;;;;;;;265.98;203.60;;;;;;;37.20;24.81;99489.00;5128919;28;20023;-81
2022/07/30 09:21:37;;;;;;;511.20;329.80;;;;;;;36.94;24.59;99475.91;5128808;28;20496;-81
2022/07/30 09:24:06;;;;;;;88.88;62.50;;;;;;;36.67;23.38;99458.31;5128932;28;20023;-81
2022/07/30 09:26:54;;;;;;;8.43;5.22;;;;;;;37.05;23.71;99477.25;5128852;28;20031;-80
2022/07/30 09:29:27;;;;;;;3.40;2.17;;;;;;;36.91;24.68;99449.66;5128392;28;20027;-79
2022/07/30 09:32:01;;;;;;;2.05;1.58;;;;;;;36.53;23.71;99439.00;5128856;28;20031;-80
2022/07/30 09:34:30;;;;;;;2.72;1.60;;;;;;;36.47;24.30;99469.13;5128749;28;20047;-80
2022/07/30 09:36:58;;;;;;;3.42;2.20;;;;;;;36.47;25.11;99458.16;5128479;28;20457;-80
2022/07/30 09:39:35;;;;;;;2.13;1.60;;;;;;;36.54;23.96;99459.06;5128609;28;20034;-78
2022/07/30 09:42:02;;;;;;;2.60;1.70;;;;;;;35.96;23.86;99424.28;5128348;28;20031;-78
2022/07/30 09:44:29;;;;;;;3.17;1.77;;;;;;;35.99;24.42;99451.34;5128451;28;20035;-79
2022/07/30 09:46:55;;;;;;;2.67;1.60;;;;;;;36.45;23.71;99452.84;5128556;28;20050;-79
2022/07/30 09:49:23;;;;;;;2.03;1.50;;;;;;;36.49;23.33;99445.94;5128174;28;20024;-79
2022/07/30 09:51:50;;;;;;;3.05;1.52;;;;;;;36.52;23.81;99453.78;5128217;28;20059;-80
2022/07/30 09:54:17;;;;;;;1.92;1.73;;;;;;;36.88;22.76;99419.00;5118030;28;20115;-85
2022/07/30 09:56:42;;;;;;;2.17;1.48;;;;;;;36.90;23.17;99414.16;5112617;28;20058;-81
2022/07/30 09:59:26;;;;;;;2.20;1.52;;;;;;;36.82;22.96;99426.16;5128350;28;20413;-80
2022/07/30 10:01:53;;;;;;;3.88;1.90;;;;;;;36.69;23.58;99426.88;5107055;28;20048;-81
2022/07/30 10:04:27;;;;;;;2.60;1.80;;;;;;;36.01;23.37;99420.94;5119513;27;20096;-83
2022/07/30 10:06:53;;;;;;;2.42;1.60;;;;;;;36.59;24.75;99420.03;5122019;27;20038;-84
2022/07/30 10:09:29;;;;;;;3.05;2.05;;;;;;;37.00;23.67;99425.63;5127105;27;20058;-82
2022/07/30 10:12:01;;;;;;;1.77;1.27;;;;;;;36.75;24.02;99419.78;5110245;27;20036;-82
2022/07/30 10:14:33;;;;;;;2.63;1.63;;;;;;;36.61;23.61;99418.78;5110725;28;21304;-85
2022/07/30 10:16:59;;;;;;;1.90;1.50;;;;;;;36.35;23.66;99403.78;5112047;27;20488;-85
2022/07/30 10:19:25;;;;;;;2.13;1.17;;;;;;;36.50;23.03;99425.66;5105547;28;20020;-83
2022/07/30 10:21:52;;;;;;;2.60;1.20;;;;;;;35.95;22.61;99394.28;5093451;28;20039;-83
2022/07/30 10:24:19;;;;;;;1.70;1.20;;;;;;;36.05;21.00;99392.06;5092808;27;20036;-87
2022/07/30 10:26:48;;;;;;;1.17;0.88;;;;;;;36.64;20.24;99393.66;5093953;28;20032;-82
2022/07/30 10:29:19;;;;;;;1.80;1.08;;;;;;;37.05;20.35;99414.88;5096448;27;20036;-85
2022/07/30 10:31:45;;;;;;;2.20;0.93;;;;;;;37.37;19.84;99397.94;5093695;28;20039;-85
2022/07/30 10:34:12;;;;;;;2.67;1.50;;;;;;;36.78;22.48;99382.78;5093350;28;20438;-86
2022/07/30 10:36:44;;;;;;;1.80;1.40;;;;;;;37.20;22.37;99386.41;5112251;28;20065;-83
2022/07/30 10:39:14;;;;;;;2.25;1.33;;;;;;;36.61;22.82;99388.56;5105772;28;20028;-85
2022/07/30 10:41:51;;;;;;;3.25;1.55;;;;;;;36.31;23.79;99382.41;5093159;28;20066;-84
2022/07/30 10:44:38;;;;;;;2.08;1.38;;;;;;;36.31;23.80;99338.47;5093109;28;20105;-86
2022/07/30 10:47:07;;;;;;;5.68;1.38;;;;;;;36.75;22.46;99353.84;5092509;28;20024;-85
2022/07/30 10:49:33;;;;;;;1.48;1.23;;;;;;;36.86;21.25;99394.47;5093475;28;20111;-85
2022/07/30 10:51:59;;;;;;;7.82;2.25;;;;;;;36.41;23.04;99349.97;5090516;28;20031;-85
2022/07/30 10:54:33;;;;;;;1.60;1.38;;;;;;;36.22;23.12;99370.66;5091537;28;20089;-87
2022/07/30 10:57:03;;;;;;;1.52;1.15;;;;;;;36.68;21.99;99367.47;5097135;28;20557;-85
2022/07/30 10:59:29;;;;;;;3.13;1.10;;;;;;;37.13;21.42;99369.03;5093187;28;20405;-87
2022/07/30 11:01:57;;;;;;;0.98;0.75;;;;;;;36.75;25.07;99367.56;5092108;27;20056;-88
2022/07/30 11:04:24;;;;;;;2.08;1.15;;;;;;;36.99;23.51;99368.13;5110351;27;20065;-87
2022/07/30 11:06:50;;;;;;;2.38;1.23;;;;;;;36.83;20.87;99304.22;5113869;27;20033;-85
2022/07/30 11:09:38;;;;;;;2.75;1.45;;;;;;;36.83;21.72;99350.06;5123132;27;20480;-84
2022/07/30 11:12:05;;;;;;;1.90;1.10;;;;;;;36.72;21.17;99329.47;5111455;28;20481;-84
2022/07/30 11:14:46;;;;;;;1.35;1.05;;;;;;;36.91;21.68;99341.66;5094880;28;20114;-83
2022/07/30 11:17:13;;;;;;;2.03;1.23;;;;;;;36.86;21.58;99350.50;5112155;28;20039;-83
2022/07/30 11:20:05;;;;;;;1.25;0.90;;;;;;;36.60;20.34;99340.16;5100441;28;20024;-84
2022/07/30 11:22:39;;;;;;;1.98;1.17;;;;;;;36.21;20.52;99320.44;5092594;28;20032;-84
2022/07/30 11:25:06;;;;;;;1.02;0.70;;;;;;;36.12;19.48;99329.00;5098845;28;20024;-82
2022/07/30 11:27:38;;;;;;;1.60;0.95;;;;;;;36.56;20.20;99336.13;5101109;28;20042;-84
2022/07/30 11:30:24;;;;;;;5.15;1.45;;;;;;;36.72;22.33;99334.97;5102648;28;20036;-83
2022/07/30 11:32:52;;;;;;;3.38;1.20;;;;;;;36.41;20.95;99328.00;5110458;27;20492;-84
2022/07/30 11:35:28;;;;;;;0.90;0.80;;;;;;;36.16;20.00;99292.72;5122641;27;20081;-84
2022/07/30 11:38:14;;;;;;;1.02;0.85;;;;;;;36.36;20.05;99308.53;5112702;28;20035;-85
2022/07/30 11:40:48;;;;;;;1.80;1.13;;;;;;;36.11;18.93;99308.94;5102912;28;20028;-84
2022/07/30 11:43:23;;;;;;;2.22;1.42;;;;;;;36.00;20.70;99302.09;5112223;28;20138;-83